Time;durP1;ratioP1;P1;durP2;ratioP2;P2;SDS_P1;SDS_P2;PMS_P1;PMS_P2;Temp;Humidity;BMP_temperature;BMP_pressure;BME280_temperature;BME280_humidity;BME280_pressure;Samples;Min_cycle;Max_cycle;Signal;HPM_P1;HPM_P2
2023/03/10 00:01:31;;;;;;;47.97;24.43;;;1.70;99.90;;;;;;4980528;28;20929;-50
2023/03/10 00:03:57;;;;;;;45.33;23.37;;;1.70;99.90;;;;;;4980099;28;20499;-50
2023/03/10 00:06:25;;;;;;;52.53;23.97;;;1.70;99.90;;;;;;4982483;28;20808;-50
2023/03/10 00:08:52;;;;;;;45.80;22.10;;;1.70;99.90;;;;;;4984235;28;20487;-50
2023/03/10 00:11:18;;;;;;;42.33;21.50;;;1.60;99.90;;;;;;4980729;28;20436;-50
2023/03/10 00:13:43;;;;;;;46.13;22.77;;;1.70;99.90;;;;;;4978327;28;20473;-50
2023/03/10 00:16:20;;;;;;;45.13;22.60;;;1.60;99.90;;;;;;4978832;28;20488;-51
2023/03/10 00:18:45;;;;;;;44.03;21.67;;;1.60;99.90;;;;;;4981482;28;20271;-51
2023/03/10 00:21:16;;;;;;;45.30;23.17;;;1.60;1.00;;;;;;4979207;28;20588;-50
2023/03/10 00:23:42;;;;;;;42.93;21.40;;;1.60;1.00;;;;;;4978402;28;20296;-50
2023/03/10 00:26:11;;;;;;;46.70;22.73;;;1.60;1.00;;;;;;4982274;28;20949;-50
2023/03/10 00:28:37;;;;;;;43.90;22.60;;;1.60;1.00;;;;;;4981839;28;20373;-50
2023/03/10 00:31:06;;;;;;;43.80;21.77;;;1.60;1.00;;;;;;4981017;28;20534;-50
2023/03/10 00:33:33;;;;;;;44.90;23.23;;;1.60;99.90;;;;;;4983470;28;20188;-50
2023/03/10 00:36:11;;;;;;;45.20;22.70;;;1.50;99.90;;;;;;4978243;28;20487;-50
2023/03/10 00:38:38;;;;;;;44.37;22.50;;;1.50;1.00;;;;;;4983909;28;20448;-50
2023/03/10 00:41:07;;;;;;;43.30;21.20;;;1.50;99.90;;;;;;4990895;28;20442;-50
2023/03/10 00:43:33;;;;;;;47.00;23.43;;;1.50;1.00;;;;;;4985953;28;20443;-50
2023/03/10 00:45:59;;;;;;;43.10;22.00;;;1.50;99.90;;;;;;4984162;28;20518;-50
2023/03/10 00:48:25;;;;;;;44.80;22.60;;;1.40;99.90;;;;;;4987222;28;20486;-50
2023/03/10 00:50:50;;;;;;;47.27;22.80;;;1.50;1.00;;;;;;4980271;28;20444;-50
2023/03/10 00:53:17;;;;;;;44.23;22.80;;;1.50;99.90;;;;;;4982130;28;20192;-50
2023/03/10 00:55:43;;;;;;;44.77;22.27;;;1.50;1.00;;;;;;4985935;28;20268;-49
2023/03/10 00:58:09;;;;;;;48.30;22.83;;;1.40;88.00;;;;;;4979074;28;20468;-50
2023/03/10 01:00:35;;;;;;;50.83;23.37;;;1.40;99.90;;;;;;4980673;28;20204;-50
2023/03/10 01:03:00;;;;;;;50.87;22.87;;;1.50;1.00;;;;;;4982368;28;20441;-50
2023/03/10 01:05:27;;;;;;;45.20;22.43;;;1.40;1.00;;;;;;4988317;28;21441;-50
2023/03/10 01:07:53;;;;;;;45.90;22.33;;;1.40;99.90;;;;;;4986921;28;20218;-50
2023/03/10 01:10:19;;;;;;;41.43;21.03;;;1.40;99.90;;;;;;4984668;28;20445;-50
2023/03/10 01:12:45;;;;;;;41.53;20.13;;;1.40;99.90;;;;;;4985971;28;20447;-49
2023/03/10 01:15:11;;;;;;;45.67;22.63;;;1.50;99.90;;;;;;4984958;28;20217;-50
2023/03/10 01:17:36;;;;;;;42.70;21.00;;;1.50;99.90;;;;;;4982218;28;20217;-50
2023/03/10 01:20:07;;;;;;;44.40;21.93;;;1.40;1.00;;;;;;4986062;28;20446;-49
2023/03/10 01:22:33;;;;;;;43.70;22.17;;;1.50;1.00;;;;;;4985042;28;20309;-50
2023/03/10 01:24:58;;;;;;;45.73;22.60;;;1.50;99.90;;;;;;4982872;28;20478;-49
2023/03/10 01:27:24;;;;;;;43.67;22.27;;;1.50;99.90;;;;;;4984178;28;20217;-50
2023/03/10 01:29:49;;;;;;;39.07;19.87;;;1.50;19.10;;;;;;4979408;28;20184;-49
2023/03/10 01:32:15;;;;;;;41.50;20.27;;;1.50;99.90;;;;;;4982439;28;20185;-49
2023/03/10 01:34:41;;;;;;;43.63;21.40;;;1.40;99.90;;;;;;4980568;28;20193;-50
2023/03/10 01:37:06;;;;;;;39.10;20.30;;;1.40;1.00;;;;;;4979875;28;20447;-49
2023/03/10 01:39:32;;;;;;;43.87;22.23;;;1.40;1.00;;;;;;4984802;28;20264;-49
2023/03/10 01:41:59;;;;;;;43.03;21.10;;;1.40;1.00;;;;;;4985315;28;20541;-49
2023/03/10 01:44:24;;;;;;;45.17;22.50;;;1.50;1.00;;;;;;4983904;28;20200;-49
2023/03/10 01:46:51;;;;;;;44.67;22.40;;;1.40;1.00;;;;;;4982991;28;20439;-49
2023/03/10 01:49:38;;;;;;;45.57;22.57;;;1.40;1.00;;;;;;4983227;28;20205;-50
2023/03/10 01:52:20;;;;;;;43.97;21.80;;;1.40;1.00;;;;;;4979209;28;20436;-49
2023/03/10 01:54:55;;;;;;;44.87;21.43;;;1.30;1.00;;;;;;4985417;28;21040;-49
2023/03/10 01:57:25;;;;;;;44.70;21.00;;;1.40;1.00;;;;;;4980416;28;20460;-49
2023/03/10 01:59:51;;;;;;;45.80;20.80;;;1.40;13.50;;;;;;4977833;28;20793;-49
2023/03/10 02:02:18;;;;;;;49.03;22.00;;;1.30;1.00;;;;;;4982909;28;20522;-50
2023/03/10 02:04:48;;;;;;;43.50;21.77;;;1.40;1.00;;;;;;4981440;28;21347;-50
2023/03/10 02:07:17;;;;;;;47.73;22.17;;;1.40;1.00;;;;;;4981344;28;20571;-50
2023/03/10 02:09:46;;;;;;;44.10;22.00;;;1.40;1.00;;;;;;4980593;28;20441;-50
2023/03/10 02:12:13;;;;;;;45.67;20.37;;;1.40;1.00;;;;;;4981804;28;20432;-49
2023/03/10 02:14:40;;;;;;;44.37;21.73;;;1.40;1.00;;;;;;4983499;28;20511;-50
2023/03/10 02:17:12;;;;;;;42.47;19.80;;;1.40;99.90;;;;;;4980335;28;20453;-49
2023/03/10 02:19:56;;;;;;;42.27;20.90;;;1.40;99.90;;;;;;4978308;28;20441;-49
2023/03/10 02:22:21;;;;;;;44.63;21.60;;;1.40;1.00;;;;;;4978691;28;20443;-49
2023/03/10 02:25:02;;;;;;;39.63;19.87;;;1.40;1.00;;;;;;4977809;28;20449;-50
2023/03/10 02:27:33;;;;;;;42.30;20.20;;;1.40;1.00;;;;;;4982856;28;20284;-49
2023/03/10 02:30:24;;;;;;;41.53;21.47;;;1.40;99.90;;;;;;4981594;28;20449;-50
2023/03/10 02:32:54;;;;;;;44.97;20.93;;;1.30;99.90;;;;;;4980933;28;20435;-49
2023/03/10 02:35:20;;;;;;;42.83;20.63;;;1.40;99.90;;;;;;4980399;28;21040;-49
2023/03/10 02:37:46;;;;;;;43.07;21.70;;;1.40;50.40;;;;;;4979528;28;20440;-49
2023/03/10 02:40:24;;;;;;;43.87;21.60;;;1.40;57.70;;;;;;4978148;28;21042;-49
2023/03/10 02:42:50;;;;;;;43.90;20.80;;;1.40;24.10;;;;;;4981726;28;20456;-50
2023/03/10 02:45:16;;;;;;;37.70;19.00;;;1.40;2.00;;;;;;4982068;28;20454;-50
2023/03/10 02:47:42;;;;;;;44.73;21.63;;;1.40;1.00;;;;;;4979460;28;20835;-50
2023/03/10 02:50:11;;;;;;;41.23;21.37;;;1.40;1.00;;;;;;4977925;28;20457;-49
2023/03/10 02:52:49;;;;;;;44.67;20.93;;;1.30;1.00;;;;;;4977183;28;20284;-50
2023/03/10 02:55:16;;;;;;;41.93;20.80;;;1.30;99.90;;;;;;4981864;28;20435;-50
2023/03/10 02:57:42;;;;;;;43.80;20.53;;;1.30;99.90;;;;;;4985233;28;21415;-50
2023/03/10 03:00:10;;;;;;;38.73;19.70;;;1.30;99.90;;;;;;4977430;28;20528;-49
2023/03/10 03:02:37;;;;;;;42.00;21.10;;;1.30;1.00;;;;;;4981254;28;20207;-50
2023/03/10 03:05:03;;;;;;;42.33;21.47;;;1.20;67.40;;;;;;4978080;28;20452;-49
2023/03/10 03:07:29;;;;;;;38.70;19.03;;;1.20;99.90;;;;;;4983840;28;20475;-50
2023/03/10 03:09:54;;;;;;;38.20;19.80;;;1.20;1.00;;;;;;4981124;28;20807;-50
2023/03/10 03:12:20;;;;;;;42.40;20.33;;;1.30;99.90;;;;;;4978713;28;20188;-49
2023/03/10 03:14:45;;;;;;;36.60;19.83;;;1.30;99.90;;;;;;4981423;28;20280;-49
2023/03/10 03:17:11;;;;;;;40.40;18.93;;;1.20;21.00;;;;;;4977950;28;20651;-50
2023/03/10 03:19:37;;;;;;;41.13;18.97;;;1.20;97.20;;;;;;4980275;28;20195;-49
2023/03/10 03:22:02;;;;;;;36.77;19.37;;;1.30;99.90;;;;;;4979335;28;20199;-49
2023/03/10 03:24:28;;;;;;;36.60;19.10;;;1.30;99.90;;;;;;4977120;28;20202;-49
2023/03/10 03:26:54;;;;;;;35.93;18.60;;;1.30;99.90;;;;;;4977923;28;20606;-50
2023/03/10 03:29:19;;;;;;;37.23;18.63;;;1.30;99.90;;;;;;4979879;28;20193;-50
2023/03/10 03:31:45;;;;;;;36.40;18.70;;;1.30;99.90;;;;;;4979986;28;20192;-49
2023/03/10 03:34:10;;;;;;;38.40;19.27;;;1.30;95.30;;;;;;4979921;28;20184;-50
2023/03/10 03:36:36;;;;;;;37.37;18.97;;;1.20;72.50;;;;;;4981701;28;20720;-50
2023/03/10 03:39:05;;;;;;;36.03;17.97;;;1.30;99.90;;;;;;4982499;28;20197;-50
2023/03/10 03:41:31;;;;;;;35.40;18.77;;;1.20;99.90;;;;;;4979998;28;20448;-49
2023/03/10 03:43:57;;;;;;;38.30;19.20;;;1.20;99.90;;;;;;4978972;28;20439;-50
2023/03/10 03:46:22;;;;;;;37.17;18.57;;;1.20;1.00;;;;;;4980041;28;20443;-50
2023/03/10 03:48:48;;;;;;;39.70;20.60;;;1.20;99.90;;;;;;4976044;28;20229;-49
2023/03/10 03:51:13;;;;;;;37.40;19.40;;;1.20;1.00;;;;;;4980242;28;20224;-49
2023/03/10 03:53:39;;;;;;;38.57;19.10;;;1.20;99.90;;;;;;4985986;28;20197;-50
2023/03/10 03:56:05;;;;;;;40.37;19.73;;;1.10;29.30;;;;;;4980760;28;20241;-50
2023/03/10 03:58:30;;;;;;;41.07;21.50;;;1.10;99.90;;;;;;4978036;28;20253;-49
2023/03/10 04:00:56;;;;;;;42.40;19.63;;;1.00;1.00;;;;;;4980721;28;20189;-49
2023/03/10 04:03:22;;;;;;;40.47;21.40;;;1.00;1.00;;;;;;4977323;28;20204;-49
2023/03/10 04:05:48;;;;;;;38.63;20.20;;;1.00;1.00;;;;;;4976418;28;20451;-49
2023/03/10 04:08:13;;;;;;;43.93;20.57;;;1.00;1.00;;;;;;4981134;28;20252;-49
2023/03/10 04:10:39;;;;;;;41.40;20.87;;;1.00;1.00;;;;;;4979348;28;20193;-49
2023/03/10 04:13:05;;;;;;;39.77;19.07;;;1.10;99.90;;;;;;4981174;28;20190;-50
2023/03/10 04:15:30;;;;;;;39.50;19.40;;;1.00;99.90;;;;;;4988385;28;20205;-49
2023/03/10 04:17:56;;;;;;;41.03;20.17;;;1.00;99.90;;;;;;4985481;28;20190;-49
2023/03/10 04:20:23;;;;;;;43.27;21.20;;;1.00;1.00;;;;;;4987676;28;20267;-49
2023/03/10 04:22:50;;;;;;;42.90;21.20;;;0.90;1.00;;;;;;4987705;28;20939;-49
2023/03/10 04:25:16;;;;;;;37.70;19.63;;;0.90;1.00;;;;;;4980291;28;20479;-49
2023/03/10 04:27:41;;;;;;;48.60;25.50;;;0.90;54.70;;;;;;4982901;28;20487;-50
2023/03/10 04:30:08;;;;;;;41.60;21.47;;;0.90;99.90;;;;;;4982861;28;20255;-49
2023/03/10 04:32:34;;;;;;;46.73;20.90;;;0.90;99.90;;;;;;4986371;28;20195;-48
2023/03/10 04:35:00;;;;;;;41.30;20.20;;;0.90;99.90;;;;;;4982060;28;20477;-49
2023/03/10 04:37:26;;;;;;;40.87;20.57;;;0.90;99.90;;;;;;4985571;28;20199;-49
2023/03/10 04:39:51;;;;;;;43.90;22.03;;;0.90;99.90;;;;;;4983638;28;20444;-49
2023/03/10 04:42:17;;;;;;;43.20;20.87;;;0.90;99.90;;;;;;4982733;28;20193;-50
2023/03/10 04:44:43;;;;;;;43.83;21.67;;;0.90;99.90;;;;;;4985856;28;20204;-49
2023/03/10 04:47:08;;;;;;;43.97;20.10;;;0.90;1.00;;;;;;4983213;28;20185;-49
2023/03/10 04:49:36;;;;;;;41.67;22.10;;;0.90;1.00;;;;;;4981217;28;20182;-49
2023/03/10 04:52:01;;;;;;;42.90;21.23;;;0.90;1.00;;;;;;4981605;28;20190;-49
2023/03/10 04:54:27;;;;;;;41.70;20.53;;;0.90;1.00;;;;;;4982913;28;20455;-49
2023/03/10 04:56:52;;;;;;;46.83;21.60;;;0.90;1.00;;;;;;4980266;28;20596;-49
2023/03/10 04:59:20;;;;;;;46.77;21.60;;;0.90;1.00;;;;;;4984886;28;20286;-49
2023/03/10 05:01:46;;;;;;;43.07;21.10;;;0.90;1.00;;;;;;4984476;28;20208;-48
2023/03/10 05:04:12;;;;;;;45.60;22.50;;;0.80;1.00;;;;;;4980203;28;20933;-49
2023/03/10 05:06:37;;;;;;;42.00;20.80;;;0.80;1.00;;;;;;4985661;28;20532;-49
2023/03/10 05:09:03;;;;;;;45.87;21.97;;;0.80;1.00;;;;;;4982902;28;20246;-50
2023/03/10 05:11:29;;;;;;;43.90;22.10;;;0.80;1.00;;;;;;4988933;28;20632;-49
2023/03/10 05:13:55;;;;;;;44.07;21.37;;;0.80;1.00;;;;;;4979381;28;20205;-49
2023/03/10 05:16:21;;;;;;;43.87;22.20;;;0.80;1.00;;;;;;4980980;28;20436;-49
2023/03/10 05:18:47;;;;;;;43.60;20.90;;;0.80;1.00;;;;;;4980984;28;20185;-49
2023/03/10 05:21:13;;;;;;;43.53;20.67;;;0.80;1.00;;;;;;4979890;28;20440;-48
2023/03/10 05:23:38;;;;;;;43.80;22.20;;;0.80;1.00;;;;;;4979769;28;20272;-49
2023/03/10 05:26:06;;;;;;;44.53;21.13;;;0.80;1.00;;;;;;4978771;28;20872;-50
2023/03/10 05:28:32;;;;;;;45.90;20.47;;;0.80;1.00;;;;;;4980262;28;20253;-51
2023/03/10 05:30:58;;;;;;;41.80;20.30;;;0.80;1.00;;;;;;4980785;28;20468;-48
2023/03/10 05:33:24;;;;;;;40.40;20.67;;;0.80;1.00;;;;;;4984967;28;20939;-48
2023/03/10 05:35:49;;;;;;;44.60;20.90;;;0.80;1.00;;;;;;4985018;28;20472;-49
2023/03/10 05:38:15;;;;;;;42.67;21.50;;;0.80;1.00;;;;;;4984571;28;20276;-48
2023/03/10 05:40:43;;;;;;;44.97;21.77;;;0.70;1.00;;;;;;4982733;28;20214;-49
2023/03/10 05:43:09;;;;;;;45.53;21.40;;;0.80;1.00;;;;;;4985898;28;20479;-49
2023/03/10 05:45:34;;;;;;;45.93;21.90;;;0.70;1.00;;;;;;4982006;28;20956;-49
2023/03/10 05:48:00;;;;;;;46.20;22.53;;;0.70;1.00;;;;;;4979136;28;20903;-48
2023/03/10 05:50:25;;;;;;;47.83;23.40;;;0.80;1.00;;;;;;4982509;28;20191;-49
2023/03/10 05:52:51;;;;;;;42.17;21.17;;;0.80;1.00;;;;;;4979425;28;20557;-48
2023/03/10 05:55:18;;;;;;;48.10;22.90;;;0.80;1.00;;;;;;4978492;28;20243;-49
2023/03/10 05:57:44;;;;;;;49.40;22.87;;;0.80;1.00;;;;;;4980192;28;20196;-49
2023/03/10 06:00:12;;;;;;;49.17;21.57;;;0.70;1.00;;;;;;4979107;28;20531;-49
2023/03/10 06:02:40;;;;;;;45.07;22.30;;;0.80;1.00;;;;;;4979299;28;20976;-49
2023/03/10 06:05:09;;;;;;;51.63;23.87;;;0.70;1.00;;;;;;4978733;28;20437;-49
2023/03/10 06:07:35;;;;;;;47.50;22.33;;;0.70;1.00;;;;;;4981388;28;20542;-49
2023/03/10 06:10:01;;;;;;;50.17;23.43;;;0.80;1.00;;;;;;4985289;28;20440;-49
2023/03/10 06:12:26;;;;;;;48.57;23.40;;;0.80;1.00;;;;;;4984664;28;20189;-50
2023/03/10 06:14:52;;;;;;;47.47;24.13;;;0.70;1.00;;;;;;4982557;28;20256;-49
2023/03/10 06:17:18;;;;;;;43.23;22.03;;;0.80;1.00;;;;;;4985523;28;20215;-49
2023/03/10 06:19:43;;;;;;;43.00;20.77;;;0.80;1.00;;;;;;4982496;28;20644;-48
2023/03/10 06:22:09;;;;;;;46.17;22.10;;;0.80;1.00;;;;;;4982402;28;20199;-48
2023/03/10 06:24:35;;;;;;;41.20;21.67;;;0.80;1.00;;;;;;4982878;28;20199;-48
2023/03/10 06:27:00;;;;;;;42.40;21.43;;;0.90;1.00;;;;;;4983322;28;20188;-49
2023/03/10 06:29:26;;;;;;;43.87;20.50;;;0.80;1.00;;;;;;4984786;28;20636;-49
2023/03/10 06:31:51;;;;;;;47.77;21.93;;;0.90;1.00;;;;;;4979332;28;20288;-49
2023/03/10 06:34:17;;;;;;;43.60;22.00;;;0.90;1.00;;;;;;4982523;28;20196;-51
2023/03/10 06:36:43;;;;;;;42.20;20.60;;;0.90;1.00;;;;;;4981252;28;20236;-49
2023/03/10 06:39:09;;;;;;;43.47;21.60;;;1.00;1.00;;;;;;4978464;28;20189;-49
2023/03/10 06:41:35;;;;;;;41.80;20.00;;;0.90;1.00;;;;;;4980845;28;20813;-49
2023/03/10 06:44:02;;;;;;;43.37;21.57;;;0.90;1.00;;;;;;4978357;28;20561;-50
2023/03/10 06:46:27;;;;;;;41.03;20.03;;;0.90;1.00;;;;;;4983066;28;20871;-49
2023/03/10 06:48:54;;;;;;;40.10;20.67;;;0.90;1.00;;;;;;4986028;28;20618;-50
2023/03/10 06:51:21;;;;;;;38.50;20.53;;;0.90;1.00;;;;;;4983866;28;20200;-49
2023/03/10 06:53:48;;;;;;;40.67;19.87;;;1.00;1.00;;;;;;4984338;28;20444;-49
2023/03/10 06:56:21;;;;;;;37.13;19.27;;;1.00;1.00;;;;;;4980547;28;20464;-49
2023/03/10 06:58:47;;;;;;;40.83;20.87;;;1.00;1.00;;;;;;4989864;28;21015;-50
2023/03/10 07:01:26;;;;;;;38.50;20.77;;;1.00;1.00;;;;;;4979789;28;20791;-51
2023/03/10 07:03:53;;;;;;;38.50;19.77;;;1.00;1.00;;;;;;4981666;28;20468;-50
2023/03/10 07:06:18;;;;;;;38.73;19.67;;;1.10;1.00;;;;;;4981628;28;20448;-50
2023/03/10 07:08:44;;;;;;;35.53;19.73;;;1.10;1.00;;;;;;4981078;28;20488;-50
2023/03/10 07:11:10;;;;;;;36.50;19.67;;;1.10;1.00;;;;;;4987384;28;20215;-50
2023/03/10 07:13:35;;;;;;;36.47;19.77;;;1.10;1.00;;;;;;4977377;28;20560;-50
2023/03/10 07:16:01;;;;;;;44.60;22.40;;;1.20;1.00;;;;;;4977076;28;21321;-50
2023/03/10 07:18:28;;;;;;;39.37;19.90;;;1.20;1.00;;;;;;4981395;28;20197;-50
2023/03/10 07:20:55;;;;;;;40.70;20.47;;;1.30;1.00;;;;;;4981986;28;20193;-50
2023/03/10 07:23:22;;;;;;;40.20;21.43;;;1.20;1.00;;;;;;4976870;28;20447;-51
2023/03/10 07:25:51;;;;;;;37.43;19.80;;;1.30;1.00;;;;;;4982127;28;20447;-50
2023/03/10 07:28:17;;;;;;;35.13;19.10;;;1.30;1.00;;;;;;4980217;28;20467;-50
2023/03/10 07:30:43;;;;;;;35.07;18.97;;;1.30;1.00;;;;;;4980685;28;20468;-50
2023/03/10 07:33:09;;;;;;;37.20;19.60;;;1.40;1.00;;;;;;4981165;28;20196;-50
2023/03/10 07:35:35;;;;;;;36.27;18.47;;;1.50;1.00;;;;;;4983647;28;21029;-50
2023/03/10 07:38:01;;;;;;;34.80;18.23;;;1.50;1.00;;;;;;4980632;28;20236;-50
2023/03/10 07:40:27;;;;;;;33.73;18.80;;;1.50;1.00;;;;;;4977282;28;20464;-49
2023/03/10 07:42:55;;;;;;;31.80;18.87;;;1.50;1.00;;;;;;4980301;28;20225;-49
2023/03/10 07:45:22;;;;;;;32.17;18.57;;;1.40;1.00;;;;;;4977553;28;20191;-48
2023/03/10 07:47:52;;;;;;;33.73;18.17;;;1.40;1.00;;;;;;4981372;28;20927;-49
2023/03/10 07:50:19;;;;;;;35.70;19.43;;;1.50;1.00;;;;;;4981670;28;20999;-50
2023/03/10 07:52:45;;;;;;;34.90;18.43;;;1.50;1.00;;;;;;4981969;28;20440;-50
2023/03/10 07:55:11;;;;;;;33.33;19.07;;;1.60;1.00;;;;;;4984083;28;20955;-49
2023/03/10 07:57:36;;;;;;;37.50;18.33;;;1.60;1.00;;;;;;4984688;28;20451;-50
2023/03/10 08:00:04;;;;;;;32.87;17.80;;;1.50;1.00;;;;;;4980286;28;20185;-49
2023/03/10 08:02:30;;;;;;;35.47;18.50;;;1.60;1.00;;;;;;4984442;28;20273;-49
2023/03/10 08:04:55;;;;;;;33.93;18.87;;;1.50;1.00;;;;;;4976814;28;20917;-50
2023/03/10 08:07:21;;;;;;;35.53;18.60;;;1.60;1.00;;;;;;4977675;28;20225;-50
2023/03/10 08:09:51;;;;;;;35.83;18.30;;;1.60;1.00;;;;;;4988655;28;20201;-49
2023/03/10 08:12:17;;;;;;;32.67;18.27;;;1.60;1.00;;;;;;4983983;28;20196;-49
2023/03/10 08:14:43;;;;;;;34.47;18.20;;;1.70;1.00;;;;;;4983993;28;20465;-49
2023/03/10 08:17:08;;;;;;;35.27;17.93;;;1.70;99.90;;;;;;4984723;28;20440;-50
2023/03/10 08:19:36;;;;;;;37.17;18.70;;;1.70;99.90;;;;;;4980474;28;20185;-50
2023/03/10 08:22:01;;;;;;;33.60;18.67;;;1.70;99.90;;;;;;4984504;28;20205;-50
2023/03/10 08:24:27;;;;;;;32.00;17.20;;;1.80;99.90;;;;;;4980074;28;21225;-49
2023/03/10 08:26:53;;;;;;;32.60;18.17;;;1.80;99.90;;;;;;4980344;28;20200;-49
2023/03/10 08:29:19;;;;;;;38.47;20.07;;;1.90;99.90;;;;;;4979808;28;20216;-49
2023/03/10 08:31:45;;;;;;;33.70;19.27;;;1.90;99.90;;;;;;4979711;28;20229;-49
2023/03/10 08:34:11;;;;;;;32.93;17.97;;;1.90;99.90;;;;;;4980574;28;20528;-49
2023/03/10 08:36:38;;;;;;;30.47;17.50;;;1.90;99.90;;;;;;4981091;28;20574;-49
2023/03/10 08:39:04;;;;;;;35.20;17.90;;;2.00;99.90;;;;;;4979963;28;20801;-49
2023/03/10 08:41:32;;;;;;;31.33;17.93;;;2.00;99.90;;;;;;4980693;28;20462;-49
2023/03/10 08:43:58;;;;;;;32.77;17.53;;;2.00;99.90;;;;;;4985775;28;20490;-50
2023/03/10 08:46:27;;;;;;;33.97;18.33;;;2.10;99.90;;;;;;4979725;28;20448;-49
2023/03/10 08:48:53;;;;;;;31.10;17.90;;;2.20;99.90;;;;;;4984094;28;20252;-49
2023/03/10 08:51:19;;;;;;;34.30;17.67;;;2.20;99.90;;;;;;4979930;28;20917;-49
2023/03/10 08:53:47;;;;;;;37.53;18.93;;;2.30;99.90;;;;;;4983411;28;20439;-49
2023/03/10 08:56:14;;;;;;;38.03;18.90;;;2.30;99.90;;;;;;4979463;28;20443;-49
2023/03/10 08:58:40;;;;;;;35.60;18.20;;;2.30;99.90;;;;;;4979237;28;20449;-49
2023/03/10 09:01:06;;;;;;;34.93;18.63;;;2.30;99.80;;;;;;4979710;28;20436;-49
2023/03/10 09:03:35;;;;;;;33.00;17.63;;;2.40;27.50;;;;;;4979529;28;20306;-49
2023/03/10 09:06:01;;;;;;;31.50;17.80;;;2.40;1.00;;;;;;4980100;28;20539;-49
2023/03/10 09:08:26;;;;;;;34.20;18.27;;;2.30;1.00;;;;;;4983254;28;20580;-49
2023/03/10 09:10:52;;;;;;;33.77;17.50;;;2.30;1.00;;;;;;4978849;28;20186;-50
2023/03/10 09:13:18;;;;;;;34.43;18.17;;;2.30;1.00;;;;;;4979720;28;20196;-50
2023/03/10 09:15:43;;;;;;;35.90;17.80;;;2.20;1.00;;;;;;4979194;28;20674;-49
2023/03/10 09:18:11;;;;;;;32.83;17.23;;;2.20;1.00;;;;;;4979534;28;20192;-50
2023/03/10 09:20:39;;;;;;;35.13;17.97;;;2.10;1.00;;;;;;4979413;28;20196;-50
2023/03/10 09:23:05;;;;;;;32.17;17.40;;;2.00;1.00;;;;;;4989943;28;20570;-49
2023/03/10 09:25:31;;;;;;;39.43;20.07;;;2.00;1.00;;;;;;4984245;28;20848;-50
2023/03/10 09:27:57;;;;;;;39.93;18.83;;;2.00;1.00;;;;;;4979221;28;20485;-50
2023/03/10 09:30:23;;;;;;;36.67;18.97;;;1.90;1.00;;;;;;4978610;28;20191;-49
2023/03/10 09:32:49;;;;;;;34.30;18.13;;;2.00;1.00;;;;;;4978686;28;20273;-51
2023/03/10 09:35:14;;;;;;;34.60;18.27;;;2.00;1.00;;;;;;4979069;28;21024;-49
2023/03/10 09:37:40;;;;;;;36.73;18.87;;;2.00;1.00;;;;;;4983141;28;20949;-50
2023/03/10 09:40:09;;;;;;;38.20;18.70;;;2.00;1.00;;;;;;4979566;28;20185;-50
2023/03/10 09:42:46;;;;;;;35.07;18.60;;;1.90;1.00;;;;;;4982823;28;20225;-50
2023/03/10 09:45:37;;;;;;;34.67;17.97;;;2.00;1.00;;;;;;4978755;28;21016;-50
2023/03/10 09:48:44;;;;;;;35.90;18.30;;;2.10;1.00;;;;;;4978770;28;21041;-50
2023/03/10 09:51:26;;;;;;;38.57;17.73;;;2.10;1.00;;;;;;4977560;28;20937;-50
2023/03/10 09:53:57;;;;;;;36.83;19.10;;;2.10;1.00;;;;;;4979728;28;20441;-50
2023/03/10 09:56:32;;;;;;;34.07;18.53;;;2.10;1.00;;;;;;4980628;28;20487;-49
2023/03/10 09:59:08;;;;;;;34.80;19.00;;;2.00;1.00;;;;;;4988746;28;20439;-49
2023/03/10 10:01:34;;;;;;;30.00;17.47;;;2.00;1.00;;;;;;4978000;28;20444;-50
2023/03/10 10:04:09;;;;;;;35.73;18.37;;;2.00;1.00;;;;;;4986534;28;20452;-49
2023/03/10 10:06:43;;;;;;;37.23;18.73;;;2.10;1.00;;;;;;4982394;28;20443;-50
2023/03/10 10:09:28;;;;;;;37.03;19.50;;;2.10;1.00;;;;;;4982474;28;20567;-49
2023/03/10 10:11:55;;;;;;;38.43;19.73;;;2.00;1.00;;;;;;4984863;28;20491;-49
2023/03/10 10:14:22;;;;;;;41.27;19.30;;;2.00;1.00;;;;;;4983392;28;20931;-50
2023/03/10 10:17:12;;;;;;;36.07;18.80;;;2.00;1.00;;;;;;4982100;28;20467;-49
2023/03/10 10:19:39;;;;;;;41.90;20.40;;;2.00;1.00;;;;;;4978810;28;20448;-49
2023/03/10 10:22:27;;;;;;;42.73;21.10;;;2.00;1.00;;;;;;4982067;28;20508;-49
2023/03/10 10:25:07;;;;;;;39.23;18.80;;;2.00;1.00;;;;;;4977548;28;20451;-49
2023/03/10 10:27:34;;;;;;;37.27;18.67;;;2.00;1.00;;;;;;4978439;28;20472;-50
2023/03/10 10:30:30;;;;;;;40.43;20.10;;;2.00;1.00;;;;;;4978109;28;20445;-50
2023/03/10 10:32:58;;;;;;;45.20;23.25;;;1.90;1.00;;;;;;4977575;28;20830;-50
2023/03/10 10:35:27;;;;;;;41.53;21.80;;;2.00;1.00;;;;;;4977042;28;20758;-48
2023/03/10 10:38:02;;;;;;;44.53;21.23;;;2.10;18.20;;;;;;4982012;28;20494;-50
2023/03/10 10:40:32;;;;;;;47.80;22.10;;;2.00;1.00;;;;;;4981403;28;20472;-50
2023/03/10 10:43:06;;;;;;;39.43;21.70;;;2.00;1.00;;;;;;4980910;28;20773;-50
2023/03/10 10:45:36;;;;;;;44.37;21.60;;;2.00;1.00;;;;;;4978668;28;20473;-50
2023/03/10 10:48:03;;;;;;;51.33;22.07;;;2.00;1.00;;;;;;4977266;28;20488;-50
2023/03/10 10:50:31;;;;;;;45.00;21.77;;;2.00;1.00;;;;;;4977820;28;20463;-50
2023/03/10 10:53:14;;;;;;;42.37;21.13;;;2.10;1.00;;;;;;4985728;28;20456;-49
2023/03/10 10:55:42;;;;;;;52.40;22.40;;;2.10;1.00;;;;;;4988282;28;20435;-49
2023/03/10 10:58:27;;;;;;;49.73;23.23;;;2.10;1.00;;;;;;4993976;28;20412;-49
2023/03/10 11:01:05;;;;;;;47.60;22.00;;;2.10;1.00;;;;;;4982246;28;20484;-50
2023/03/10 11:03:33;;;;;;;45.43;19.97;;;2.20;1.00;;;;;;4981084;28;20461;-49
2023/03/10 11:06:00;;;;;;;43.70;21.60;;;2.20;11.90;;;;;;4978280;28;20543;-50
2023/03/10 11:08:25;;;;;;;51.37;23.10;;;2.20;1.00;;;;;;4985154;28;20511;-50
2023/03/10 11:11:21;;;;;;;53.77;23.57;;;2.20;1.00;;;;;;4977341;28;20958;-50
2023/03/10 11:14:07;;;;;;;43.63;20.83;;;2.20;1.00;;;;;;4967950;28;20196;-49
2023/03/10 11:16:52;;;;;;;46.90;22.73;;;2.20;1.00;;;;;;4964429;28;20456;-50
2023/03/10 11:19:27;;;;;;;45.03;21.10;;;2.20;1.00;;;;;;4977071;28;20440;-50
2023/03/10 11:21:59;;;;;;;44.83;21.10;;;2.30;1.00;;;;;;4977207;28;20447;-50
2023/03/10 11:25:02;;;;;;;45.60;22.20;;;2.40;1.00;;;;;;4977072;28;20444;-49
2023/03/10 11:27:44;;;;;;;46.83;21.77;;;2.40;1.00;;;;;;4910584;29;21080;-50
2023/03/10 11:30:17;;;;;;;41.83;21.63;;;2.50;1.00;;;;;;4971363;28;20933;-49
2023/03/10 11:33:12;;;;;;;39.23;21.00;;;2.50;1.00;;;;;;4976612;28;20899;-49
2023/03/10 11:35:47;;;;;;;40.20;21.93;;;2.50;1.00;;;;;;4980631;28;20484;-50
2023/03/10 11:38:22;;;;;;;46.27;22.70;;;2.50;1.00;;;;;;4976669;28;20939;-50
2023/03/10 11:40:51;;;;;;;46.67;23.30;;;2.50;1.00;;;;;;4977317;28;20494;-50
2023/03/10 11:43:20;;;;;;;46.87;22.07;;;2.50;1.00;;;;;;4977252;28;20503;-50
2023/03/10 11:45:54;;;;;;;39.57;20.73;;;2.50;1.00;;;;;;4976829;28;20461;-50
2023/03/10 11:48:48;;;;;;;45.77;22.70;;;2.50;1.00;;;;;;4976751;28;20490;-49
2023/03/10 11:51:32;;;;;;;40.67;20.10;;;2.50;1.00;;;;;;4977507;28;20455;-49
2023/03/10 11:54:03;;;;;;;41.77;22.40;;;2.40;1.00;;;;;;4976727;28;20449;-50
2023/03/10 11:56:30;;;;;;;41.23;21.67;;;2.40;1.00;;;;;;4980575;28;20531;-50
2023/03/10 11:59:25;;;;;;;42.40;23.07;;;2.40;1.00;;;;;;4977139;28;20442;-50
2023/03/10 12:01:56;;;;;;;51.00;22.10;;;2.40;1.00;;;;;;4975728;28;20460;-49
2023/03/10 12:04:36;;;;;;;48.17;23.37;;;2.50;1.00;;;;;;4988002;28;20503;-50
2023/03/10 12:07:17;;;;;;;41.30;21.47;;;2.60;1.00;;;;;;4976640;28;20560;-50
2023/03/10 12:09:48;;;;;;;43.77;22.40;;;2.60;1.00;;;;;;4977404;28;20821;-50
2023/03/10 12:12:27;;;;;;;48.47;22.63;;;2.60;1.00;;;;;;4977040;28;20452;-50
2023/03/10 12:14:55;;;;;;;42.67;22.10;;;2.70;1.00;;;;;;4976938;28;20437;-50
2023/03/10 12:17:21;;;;;;;47.73;24.53;;;2.80;1.00;;;;;;4977701;28;20773;-50
2023/03/10 12:20:17;;;;;;;37.37;20.20;;;2.90;1.00;;;;;;4976834;28;20544;-50
2023/03/10 12:22:50;;;;;;;45.10;22.43;;;3.10;1.00;;;;;;4977169;28;20444;-50
2023/03/10 12:25:28;;;;;;;40.43;20.50;;;3.10;1.00;;;;;;4976857;28;20435;-50
2023/03/10 12:28:15;;;;;;;41.83;21.70;;;3.10;99.90;;;;;;4981485;28;20821;-50
2023/03/10 12:30:51;;;;;;;36.83;19.67;;;3.20;99.90;;;;;;4984994;28;20454;-49
2023/03/10 12:33:39;;;;;;;39.50;21.63;;;3.20;1.00;;;;;;4987110;28;20447;-50
2023/03/10 12:36:31;;;;;;;36.20;21.10;;;3.20;1.00;;;;;;4980259;28;20484;-49
2023/03/10 12:39:15;;;;;;;36.10;20.03;;;3.10;1.00;;;;;;4980720;28;20445;-49
2023/03/10 12:41:49;;;;;;;36.30;19.77;;;3.10;1.00;;;;;;4984037;28;20494;-50
2023/03/10 12:44:45;;;;;;;36.97;20.30;;;3.00;1.00;;;;;;4985498;28;20451;-49
2023/03/10 12:47:24;;;;;;;40.63;21.03;;;2.90;1.00;;;;;;4982391;28;20523;-48
2023/03/10 12:49:54;;;;;;;40.80;21.63;;;3.00;1.00;;;;;;4984276;28;20528;-48
2023/03/10 12:52:31;;;;;;;39.17;20.10;;;2.90;1.00;;;;;;4981006;28;20436;-61
2023/03/10 12:55:15;;;;;;;34.40;19.57;;;2.90;25.00;;;;;;4979469;28;20451;-46